METAR Data
IDs: Format: Raw Decoded Include TAF

Data at: 1338 UTC 26 Feb 2021

EHGG 261325Z AUTO 29011KT 260V330 9999 SCT022 BKN026 BKN031 09/04 Q1033 NOSIG